Time;durP1;ratioP1;P1;durP2;ratioP2;P2;SDS_P1;SDS_P2;PMS_P1;PMS_P2;Temp;Humidity;BMP_temperature;BMP_pressure;BME280_temperature;BME280_humidity;BME280_pressure;Samples;Min_cycle;Max_cycle;Signal;HPM_P1;HPM_P2
2022/06/11 00:00:22;;;;;;;2.33;2.12;;;20.20;50.40;;;;;;606055;236;26811;-66
2022/06/11 00:02:50;;;;;;;3.35;2.42;;;20.20;50.50;;;;;;602079;236;26625;-66
2022/06/11 00:05:18;;;;;;;2.40;2.20;;;20.20;50.60;;;;;;602296;235;26617;-66
2022/06/11 00:07:45;;;;;;;3.12;2.10;;;20.10;50.50;;;;;;602261;238;26991;-66
2022/06/11 00:10:12;;;;;;;2.28;2.08;;;20.10;50.50;;;;;;608834;236;26594;-66
2022/06/11 00:12:39;;;;;;;2.35;1.98;;;20.10;51.00;;;;;;606424;235;26870;-66
2022/06/11 00:15:07;;;;;;;2.10;2.00;;;20.10;50.70;;;;;;601507;236;26654;-66
2022/06/11 00:17:34;;;;;;;3.60;2.00;;;20.10;50.90;;;;;;603167;238;26596;-65
2022/06/11 00:20:02;;;;;;;3.10;2.40;;;20.20;50.70;;;;;;604326;236;27254;-65
2022/06/11 00:22:29;;;;;;;2.40;2.20;;;20.10;50.90;;;;;;604577;236;26558;-65
2022/06/11 00:24:56;;;;;;;3.35;2.30;;;20.10;50.90;;;;;;611799;233;26858;-65
2022/06/11 00:27:23;;;;;;;3.78;2.30;;;20.10;50.90;;;;;;611219;234;26607;-65
2022/06/11 00:29:52;;;;;;;4.10;2.00;;;20.20;51.00;;;;;;605116;234;26871;-65
2022/06/11 00:32:18;;;;;;;2.70;2.20;;;20.10;50.80;;;;;;602513;237;26585;-65
2022/06/11 00:34:45;;;;;;;3.08;2.10;;;20.20;50.80;;;;;;607102;235;26877;-66
2022/06/11 00:37:12;;;;;;;2.28;2.08;;;20.10;50.80;;;;;;606538;235;26570;-65
2022/06/11 00:39:39;;;;;;;2.15;1.90;;;20.10;50.90;;;;;;604861;236;26881;-65
2022/06/11 00:42:07;;;;;;;3.40;2.28;;;20.10;51.10;;;;;;605072;237;26659;-65
2022/06/11 00:44:35;;;;;;;2.20;1.98;;;20.10;51.10;;;;;;606448;235;26592;-66
2022/06/11 00:47:22;;;;;;;3.12;1.90;;;20.10;51.10;;;;;;610523;234;26587;-65
2022/06/11 00:49:51;;;;;;;3.92;2.22;;;20.00;51.00;;;;;;608544;235;26681;-65
2022/06/11 00:52:23;;;;;;;2.47;2.17;;;20.10;51.00;;;;;;610010;234;26617;-65
2022/06/11 00:54:53;;;;;;;2.72;2.30;;;20.00;51.00;;;;;;605789;236;26609;-66
2022/06/11 00:57:20;;;;;;;2.22;2.03;;;20.00;51.00;;;;;;603400;235;26585;-66
2022/06/11 00:59:49;;;;;;;2.47;2.28;;;20.00;51.20;;;;;;605962;235;26605;-65
2022/06/11 01:02:16;;;;;;;2.50;2.30;;;19.90;51.20;;;;;;606718;235;26827;-65
2022/06/11 01:04:44;;;;;;;3.25;2.22;;;19.90;51.30;;;;;;601425;236;26642;-65
2022/06/11 01:07:10;;;;;;;2.60;2.08;;;19.90;51.30;;;;;;601806;236;26622;-65
2022/06/11 01:09:43;;;;;;;3.50;2.20;;;19.90;51.30;;;;;;601751;236;26634;-66
2022/06/11 01:12:20;;;;;;;2.30;2.10;;;19.90;51.30;;;;;;605435;236;26580;-66
2022/06/11 01:15:03;;;;;;;2.62;2.22;;;19.80;51.40;;;;;;605813;235;26584;-66
2022/06/11 01:17:49;;;;;;;2.60;2.28;;;19.80;51.40;;;;;;602009;236;26849;-66
2022/06/11 01:20:22;;;;;;;2.65;2.42;;;19.60;51.90;;;;;;599807;235;26639;-65
2022/06/11 01:23:01;;;;;;;2.60;2.00;;;19.60;52.20;;;;;;604550;235;26626;-65
2022/06/11 01:25:33;;;;;;;3.55;2.15;;;19.60;52.40;;;;;;605515;236;26607;-66
2022/06/11 01:28:12;;;;;;;2.87;2.22;;;19.50;52.70;;;;;;609368;236;26606;-66
2022/06/11 01:30:41;;;;;;;4.65;2.60;;;19.50;52.50;;;;;;607041;236;27286;-65
2022/06/11 01:33:14;;;;;;;2.58;2.12;;;19.50;52.50;;;;;;602102;236;26627;-66
2022/06/11 01:35:50;;;;;;;2.28;2.00;;;19.50;52.60;;;;;;604697;236;26652;-65
2022/06/11 01:38:18;;;;;;;3.15;2.28;;;19.40;52.70;;;;;;611105;233;26580;-66
2022/06/11 01:40:57;;;;;;;2.50;2.28;;;19.40;52.70;;;;;;610265;234;26619;-65
2022/06/11 01:43:31;;;;;;;2.58;2.37;;;19.40;52.50;;;;;;610070;234;26809;-65
2022/06/11 01:45:58;;;;;;;3.00;2.33;;;19.40;53.20;;;;;;605197;236;26611;-66
2022/06/11 01:48:25;;;;;;;2.72;2.50;;;19.30;53.20;;;;;;605060;232;26678;-66
2022/06/11 01:50:53;;;;;;;2.70;2.50;;;19.20;53.00;;;;;;603843;238;26645;-65
2022/06/11 01:53:24;;;;;;;3.72;2.20;;;19.20;52.80;;;;;;604684;236;26866;-65
2022/06/11 01:56:15;;;;;;;4.55;2.33;;;19.20;52.80;;;;;;611156;235;26867;-65
2022/06/11 01:58:51;;;;;;;3.05;2.20;;;19.20;52.90;;;;;;611707;234;26870;-65
2022/06/11 02:01:25;;;;;;;2.78;2.25;;;19.20;53.00;;;;;;605481;236;26587;-65
2022/06/11 02:04:10;;;;;;;2.90;2.15;;;19.10;53.10;;;;;;603770;235;26580;-65
2022/06/11 02:06:55;;;;;;;2.50;2.20;;;19.10;53.30;;;;;;609843;235;26597;-65
2022/06/11 02:09:40;;;;;;;3.33;2.20;;;19.00;53.50;;;;;;605151;237;26555;-66
2022/06/11 02:12:07;;;;;;;3.08;2.78;;;18.90;53.60;;;;;;609473;234;26614;-65
2022/06/11 02:14:36;;;;;;;2.53;2.33;;;18.90;53.80;;;;;;605260;236;26535;-65
2022/06/11 02:17:04;;;;;;;2.47;2.28;;;18.90;53.80;;;;;;604422;238;26546;-66
2022/06/11 02:19:32;;;;;;;4.43;2.65;;;18.90;53.90;;;;;;601863;236;26607;-67
2022/06/11 02:22:00;;;;;;;4.22;2.28;;;18.90;54.10;;;;;;603738;236;26546;-68
2022/06/11 02:24:27;;;;;;;7.03;2.90;;;19.00;54.20;;;;;;604681;237;26546;-67
2022/06/11 02:26:55;;;;;;;7.05;2.67;;;19.00;54.20;;;;;;608948;236;26560;-67
2022/06/11 02:29:22;;;;;;;3.03;2.50;;;19.00;54.00;;;;;;602653;238;26614;-67
2022/06/11 02:31:50;;;;;;;2.58;2.03;;;19.00;54.20;;;;;;604702;237;26558;-67
2022/06/11 02:34:17;;;;;;;3.92;2.55;;;19.00;53.80;;;;;;603561;235;26903;-67
2022/06/11 02:36:47;;;;;;;3.78;2.30;;;19.00;53.70;;;;;;601754;236;26618;-66
2022/06/11 02:39:14;;;;;;;2.47;2.28;;;19.00;53.60;;;;;;604238;236;26620;-67
2022/06/11 02:41:43;;;;;;;6.78;2.47;;;19.00;53.60;;;;;;604600;237;26824;-67
2022/06/11 02:44:09;;;;;;;3.22;2.37;;;19.00;53.50;;;;;;608699;235;26595;-66
2022/06/11 02:46:41;;;;;;;2.28;2.08;;;19.00;53.70;;;;;;609839;236;26970;-67
2022/06/11 02:49:08;;;;;;;3.22;2.58;;;19.00;53.50;;;;;;610835;233;26856;-67
2022/06/11 02:51:36;;;;;;;3.62;2.50;;;19.00;53.50;;;;;;602659;237;26580;-67
2022/06/11 02:54:04;;;;;;;2.60;2.15;;;19.00;53.70;;;;;;602403;237;26591;-67
2022/06/11 02:56:32;;;;;;;3.45;2.40;;;19.00;53.80;;;;;;609968;235;26568;-67
2022/06/11 02:59:00;;;;;;;2.50;2.20;;;19.00;53.70;;;;;;605197;235;26632;-67
2022/06/11 03:01:28;;;;;;;2.53;2.33;;;19.00;54.10;;;;;;604851;235;26681;-67
2022/06/11 03:03:55;;;;;;;3.12;2.40;;;19.00;54.10;;;;;;605149;237;26649;-68
2022/06/11 03:06:22;;;;;;;2.53;2.33;;;19.00;53.60;;;;;;605053;237;26659;-66
2022/06/11 03:08:50;;;;;;;2.87;1.90;;;19.10;53.60;;;;;;608536;236;26836;-66
2022/06/11 03:11:17;;;;;;;2.30;2.00;;;19.10;53.60;;;;;;605416;236;26806;-66
2022/06/11 03:13:45;;;;;;;2.83;2.30;;;19.10;53.30;;;;;;604848;237;26581;-66
2022/06/11 03:16:12;;;;;;;2.62;2.37;;;19.20;53.40;;;;;;604870;237;26855;-66
2022/06/11 03:18:39;;;;;;;2.62;2.40;;;19.20;53.20;;;;;;604859;235;26585;-66
2022/06/11 03:21:06;;;;;;;3.55;2.20;;;19.20;53.20;;;;;;605258;237;26857;-66
2022/06/11 03:23:33;;;;;;;3.80;2.25;;;19.30;53.10;;;;;;605190;238;26580;-66
2022/06/11 03:26:02;;;;;;;3.03;2.20;;;19.40;52.80;;;;;;608515;235;26624;-66
2022/06/11 03:28:28;;;;;;;2.42;2.00;;;19.40;52.90;;;;;;608454;235;26562;-66
2022/06/11 03:30:56;;;;;;;4.03;2.08;;;19.40;53.10;;;;;;601888;237;26611;-66
2022/06/11 03:33:24;;;;;;;2.22;2.00;;;19.40;53.10;;;;;;601996;236;26618;-66
2022/06/11 03:35:51;;;;;;;3.33;2.05;;;19.50;52.90;;;;;;601841;236;26632;-66
2022/06/11 03:38:18;;;;;;;3.30;2.05;;;19.50;53.00;;;;;;601926;232;26619;-66
2022/06/11 03:40:45;;;;;;;2.15;1.95;;;19.50;53.00;;;;;;601917;237;26839;-66
2022/06/11 03:43:12;;;;;;;2.33;2.10;;;19.50;52.50;;;;;;602068;236;26602;-66
2022/06/11 03:45:39;;;;;;;4.60;2.40;;;19.60;52.50;;;;;;604838;236;26825;-66
2022/06/11 03:48:07;;;;;;;2.10;1.90;;;19.60;52.50;;;;;;602630;236;26600;-67
2022/06/11 03:50:34;;;;;;;2.50;2.30;;;19.70;52.20;;;;;;602956;238;26587;-66
2022/06/11 03:53:01;;;;;;;2.60;1.95;;;19.70;52.20;;;;;;605736;236;26571;-66
2022/06/11 03:55:29;;;;;;;2.55;2.10;;;19.80;52.10;;;;;;609639;236;26902;-66
2022/06/11 03:57:56;;;;;;;2.67;2.05;;;19.80;52.10;;;;;;606881;235;26677;-66
2022/06/11 04:02:56;;;;;;;3.03;2.08;;;19.90;52.00;;;;;;603251;235;27286;-66
2022/06/11 04:05:23;;;;;;;3.53;2.22;;;19.90;52.20;;;;;;606762;234;26621;-66
2022/06/11 04:07:50;;;;;;;2.30;1.83;;;20.00;52.00;;;;;;613239;229;26833;-66
2022/06/11 04:10:17;;;;;;;2.80;1.95;;;20.00;51.90;;;;;;612923;234;26654;-66
2022/06/11 04:12:45;;;;;;;2.35;2.10;;;20.00;52.20;;;;;;612951;235;26823;-66
2022/06/11 04:15:12;;;;;;;2.25;1.85;;;20.10;52.00;;;;;;603568;234;26668;-66
2022/06/11 04:17:39;;;;;;;2.33;1.95;;;20.20;52.10;;;;;;608152;236;26836;-66
2022/06/11 04:20:07;;;;;;;2.35;2.08;;;20.20;52.40;;;;;;608190;235;26650;-66
2022/06/11 04:22:35;;;;;;;2.55;2.17;;;20.30;52.00;;;;;;610177;234;26605;-66
2022/06/11 04:25:02;;;;;;;2.03;1.77;;;20.30;51.80;;;;;;608966;236;27408;-66
2022/06/11 04:27:29;;;;;;;4.25;2.10;;;20.40;52.10;;;;;;610145;235;26636;-66
2022/06/11 04:29:56;;;;;;;2.60;2.10;;;20.40;52.20;;;;;;602448;235;26839;-67
2022/06/11 04:32:24;;;;;;;2.25;1.83;;;20.50;51.70;;;;;;603673;235;26575;-67
2022/06/11 04:34:51;;;;;;;2.05;1.60;;;20.50;52.00;;;;;;605556;230;26809;-67
2022/06/11 04:37:18;;;;;;;2.87;1.87;;;20.60;51.70;;;;;;603218;236;26594;-67
2022/06/11 04:39:45;;;;;;;1.90;1.80;;;20.60;51.70;;;;;;602631;236;26991;-67
2022/06/11 04:42:12;;;;;;;2.80;1.90;;;20.70;51.50;;;;;;604883;237;26546;-66
2022/06/11 04:44:39;;;;;;;2.67;2.00;;;20.70;51.60;;;;;;602671;236;26633;-66
2022/06/11 04:47:08;;;;;;;2.53;1.80;;;20.80;51.60;;;;;;606900;236;26564;-67
2022/06/11 04:49:35;;;;;;;2.08;1.90;;;20.80;51.60;;;;;;606972;235;26555;-67
2022/06/11 04:52:03;;;;;;;2.20;2.00;;;20.90;51.60;;;;;;601882;237;26569;-67
2022/06/11 04:54:30;;;;;;;2.20;1.95;;;20.90;51.60;;;;;;604957;235;26595;-67
2022/06/11 04:56:57;;;;;;;1.70;1.60;;;21.00;51.60;;;;;;609184;234;26968;-67
2022/06/11 04:59:25;;;;;;;2.33;1.80;;;21.10;51.40;;;;;;606112;234;26630;-64
2022/06/11 05:01:52;;;;;;;2.35;1.55;;;21.10;51.40;;;;;;607584;235;26830;-64
2022/06/11 05:04:19;;;;;;;2.08;1.90;;;21.10;51.20;;;;;;601567;237;26606;-63
2022/06/11 05:06:46;;;;;;;3.37;1.90;;;21.10;51.20;;;;;;602140;236;26827;-63
2022/06/11 05:09:13;;;;;;;2.00;1.83;;;21.10;51.00;;;;;;602758;236;26620;-63
2022/06/11 05:11:41;;;;;;;1.73;1.62;;;21.20;51.10;;;;;;602236;237;26863;-63
2022/06/11 05:14:08;;;;;;;1.92;1.52;;;21.20;51.30;;;;;;603839;236;26634;-64
2022/06/11 05:16:35;;;;;;;1.77;1.67;;;21.30;51.20;;;;;;603995;235;27046;-64
2022/06/11 05:19:03;;;;;;;1.75;1.65;;;21.30;50.90;;;;;;604881;237;26602;-64
2022/06/11 05:21:31;;;;;;;2.03;1.85;;;21.40;50.90;;;;;;606090;234;26594;-64
2022/06/11 05:23:59;;;;;;;1.50;1.40;;;21.50;51.30;;;;;;602273;236;26608;-63
2022/06/11 05:26:28;;;;;;;1.83;1.60;;;21.60;51.00;;;;;;602494;235;26608;-64
2022/06/11 05:28:55;;;;;;;2.00;1.60;;;21.60;51.00;;;;;;604096;235;26835;-64
2022/06/11 05:31:22;;;;;;;1.90;1.80;;;21.70;51.50;;;;;;607501;235;26641;-64
2022/06/11 05:33:50;;;;;;;1.83;1.70;;;21.80;50.70;;;;;;608092;235;27390;-64
2022/06/11 05:36:20;;;;;;;1.50;1.40;;;21.90;50.60;;;;;;606829;235;26623;-62
2022/06/11 05:38:46;;;;;;;1.62;1.52;;;21.90;50.70;;;;;;604186;236;26570;-64
2022/06/11 05:41:14;;;;;;;1.83;1.70;;;21.90;50.40;;;;;;601867;232;26582;-64
2022/06/11 05:43:44;;;;;;;2.22;1.65;;;22.00;50.40;;;;;;603367;236;26605;-63
2022/06/11 05:46:10;;;;;;;1.73;1.60;;;22.10;50.70;;;;;;602934;236;26608;-63
2022/06/11 05:48:37;;;;;;;2.12;1.92;;;22.10;50.70;;;;;;604402;236;26840;-63
2022/06/11 05:51:05;;;;;;;2.37;1.50;;;22.20;50.10;;;;;;602466;238;26603;-64
2022/06/11 05:53:32;;;;;;;2.22;1.70;;;22.30;50.60;;;;;;602648;238;26878;-64
2022/06/11 05:55:59;;;;;;;1.77;1.67;;;22.50;50.30;;;;;;603456;234;26614;-63
2022/06/11 05:58:31;;;;;;;1.70;1.60;;;22.40;50.20;;;;;;607590;235;26824;-63
2022/06/11 06:00:57;;;;;;;1.98;1.80;;;22.50;50.20;;;;;;607326;235;26639;-64
2022/06/11 06:03:24;;;;;;;2.78;1.20;;;22.60;50.00;;;;;;602979;235;26954;-63
2022/06/11 06:05:52;;;;;;;1.95;1.85;;;22.70;49.80;;;;;;604221;236;26617;-63
2022/06/11 06:08:19;;;;;;;1.80;1.45;;;22.70;49.50;;;;;;603566;235;26835;-63
2022/06/11 06:10:46;;;;;;;2.03;1.85;;;22.60;49.60;;;;;;601506;236;26629;-64
2022/06/11 06:13:49;;;;;;;2.17;1.65;;;22.60;49.10;;;;;;604881;235;26873;-64
2022/06/11 06:15:59;;;;;;;1.58;1.48;;;22.80;49.00;;;;;;610913;235;26680;-64
2022/06/11 06:18:27;;;;;;;1.20;1.20;;;22.90;48.80;;;;;;608942;235;26903;-64
2022/06/11 06:20:55;;;;;;;1.30;1.30;;;22.90;48.80;;;;;;609435;235;26833;-64
2022/06/11 06:23:23;;;;;;;1.67;1.58;;;23.30;48.60;;;;;;604941;230;26546;-64
2022/06/11 06:25:51;;;;;;;1.98;1.60;;;23.30;48.20;;;;;;603744;234;26624;-64
2022/06/11 06:28:19;;;;;;;2.15;1.35;;;23.30;48.30;;;;;;608940;235;26627;-64
2022/06/11 06:30:47;;;;;;;1.60;1.50;;;23.40;48.30;;;;;;608142;235;26642;-64
2022/06/11 06:33:14;;;;;;;1.52;1.42;;;23.30;48.30;;;;;;609865;235;26587;-64
2022/06/11 06:35:42;;;;;;;1.45;1.35;;;23.60;48.30;;;;;;604037;235;26596;-64
2022/06/11 06:38:09;;;;;;;1.90;1.80;;;23.80;48.40;;;;;;603524;234;26861;-64
2022/06/11 06:40:37;;;;;;;2.85;1.60;;;24.00;48.00;;;;;;609054;235;26584;-64
2022/06/11 06:43:05;;;;;;;1.80;1.67;;;24.00;48.00;;;;;;606334;235;26636;-64
2022/06/11 06:45:32;;;;;;;1.62;1.52;;;24.00;48.00;;;;;;604368;235;26979;-64
2022/06/11 06:48:01;;;;;;;2.47;1.70;;;24.00;48.20;;;;;;604924;236;26594;-64
2022/06/11 06:50:27;;;;;;;1.67;1.30;;;24.10;47.60;;;;;;604761;236;26839;-64
2022/06/11 06:52:54;;;;;;;1.60;1.50;;;24.20;47.70;;;;;;610152;235;26635;-63
2022/06/11 06:55:21;;;;;;;1.52;1.42;;;24.10;47.60;;;;;;608287;235;26883;-65
2022/06/11 06:57:49;;;;;;;1.73;1.30;;;24.20;47.30;;;;;;604505;238;26586;-65
2022/06/11 07:00:17;;;;;;;2.20;1.40;;;24.20;47.40;;;;;;604568;236;27262;-67
2022/06/11 07:02:44;;;;;;;2.53;1.83;;;24.20;47.40;;;;;;604098;237;26597;-66
2022/06/11 07:05:12;;;;;;;2.17;1.50;;;24.20;47.30;;;;;;604384;237;27361;-65
2022/06/11 07:07:38;;;;;;;44.45;9.05;;;24.20;47.70;;;;;;606640;236;26651;-64
2022/06/11 07:10:06;;;;;;;22.67;5.47;;;24.10;47.60;;;;;;601537;237;26893;-64
2022/06/11 07:12:33;;;;;;;43.28;8.88;;;24.20;47.50;;;;;;604525;235;26627;-64
2022/06/11 07:15:01;;;;;;;12.02;3.92;;;24.20;47.50;;;;;;602823;232;27221;-65
2022/06/11 07:17:29;;;;;;;31.52;7.57;;;24.10;47.60;;;;;;604529;237;26601;-64
2022/06/11 07:19:57;;;;;;;5.15;2.00;;;24.40;47.90;;;;;;607356;236;26637;-65
2022/06/11 07:22:26;;;;;;;1.62;1.50;;;24.40;47.90;;;;;;609757;231;26561;-65
2022/06/11 07:24:53;;;;;;;10.73;3.33;;;24.60;47.60;;;;;;609785;235;26906;-65
2022/06/11 07:27:22;;;;;;;4.68;2.30;;;24.80;47.40;;;;;;609889;236;26589;-65
2022/06/11 07:29:51;;;;;;;3.58;2.03;;;24.70;47.40;;;;;;609812;231;26811;-65
2022/06/11 07:32:18;;;;;;;6.75;2.65;;;24.90;47.40;;;;;;604199;235;26645;-64
2022/06/11 07:34:45;;;;;;;5.32;2.83;;;25.00;47.30;;;;;;605990;233;26874;-64
2022/06/11 07:37:12;;;;;;;6.37;2.35;;;25.00;47.40;;;;;;604179;237;26828;-64
2022/06/11 07:39:40;;;;;;;3.17;1.77;;;25.00;47.20;;;;;;604093;236;26614;-64
2022/06/11 07:42:07;;;;;;;6.85;2.03;;;24.90;47.10;;;;;;604104;235;26604;-64
2022/06/11 07:44:36;;;;;;;4.00;2.03;;;24.80;47.40;;;;;;604748;234;26657;-65
2022/06/11 07:47:02;;;;;;;2.53;1.92;;;25.10;47.50;;;;;;602442;235;26606;-65
2022/06/11 07:49:29;;;;;;;4.57;2.12;;;25.10;47.40;;;;;;602279;238;26576;-65
2022/06/11 07:51:58;;;;;;;1.35;1.25;;;25.10;47.20;;;;;;603933;236;26602;-65
2022/06/11 07:54:25;;;;;;;1.10;1.02;;;25.10;47.20;;;;;;602299;235;26630;-65
2022/06/11 07:56:53;;;;;;;1.50;1.37;;;25.30;46.80;;;;;;610709;235;26596;-65
2022/06/11 07:59:20;;;;;;;1.42;1.37;;;25.20;46.70;;;;;;612544;235;26587;-64
2022/06/11 08:01:48;;;;;;;2.30;1.67;;;25.30;46.70;;;;;;608568;235;26664;-65
2022/06/11 08:04:15;;;;;;;3.00;1.65;;;25.50;46.60;;;;;;610219;235;26876;-65
2022/06/11 08:06:42;;;;;;;1.45;1.35;;;25.50;46.00;;;;;;608219;235;26662;-66
2022/06/11 08:09:10;;;;;;;5.10;2.10;;;25.40;46.20;;;;;;602742;235;26823;-65
2022/06/11 08:11:37;;;;;;;1.40;1.30;;;25.30;46.20;;;;;;601975;236;27363;-65
2022/06/11 08:14:04;;;;;;;1.20;1.20;;;25.40;46.00;;;;;;604650;236;26587;-65
2022/06/11 08:16:31;;;;;;;1.30;1.20;;;25.50;46.30;;;;;;604657;236;26963;-65
2022/06/11 08:18:59;;;;;;;4.45;1.62;;;25.60;46.00;;;;;;611077;235;26661;-66
2022/06/11 08:21:26;;;;;;;1.73;1.33;;;25.80;45.60;;;;;;603924;237;26836;-64
2022/06/11 08:23:53;;;;;;;1.30;1.27;;;25.80;45.20;;;;;;604176;236;26670;-64
2022/06/11 08:26:20;;;;;;;3.15;1.17;;;25.90;45.10;;;;;;602832;236;26910;-63
2022/06/11 08:28:48;;;;;;;1.40;1.30;;;26.10;45.30;;;;;;601923;236;26610;-64
2022/06/11 08:31:15;;;;;;;6.82;2.33;;;26.20;45.30;;;;;;601704;236;26670;-64
2022/06/11 08:33:42;;;;;;;4.00;1.80;;;26.60;44.90;;;;;;602425;236;26628;-63
2022/06/11 08:36:09;;;;;;;1.12;1.08;;;26.80;44.30;;;;;;603197;236;27020;-64
2022/06/11 08:38:37;;;;;;;1.00;1.00;;;26.70;44.40;;;;;;603151;235;26637;-63
2022/06/11 08:41:05;;;;;;;1.08;1.00;;;26.90;44.40;;;;;;603603;232;26994;-63
2022/06/11 08:43:34;;;;;;;1.33;1.23;;;26.90;44.40;;;;;;603569;236;26964;-64
2022/06/11 08:46:03;;;;;;;1.00;1.00;;;27.00;43.60;;;;;;607724;234;26625;-67
2022/06/11 08:48:38;;;;;;;2.12;1.35;;;27.10;42.90;;;;;;610808;235;26636;-67
2022/06/11 08:51:14;;;;;;;3.12;1.15;;;27.10;42.90;;;;;;610125;234;26645;-67
2022/06/11 08:53:41;;;;;;;1.55;1.20;;;27.10;42.90;;;;;;606564;234;26864;-67
2022/06/11 08:56:09;;;;;;;3.08;1.75;;;27.20;43.60;;;;;;604688;235;26666;-68
2022/06/11 08:58:45;;;;;;;1.35;1.08;;;27.40;43.10;;;;;;610176;235;26634;-68
2022/06/11 09:01:20;;;;;;;1.20;1.10;;;27.60;42.60;;;;;;606476;235;26613;-68
2022/06/11 09:03:54;;;;;;;1.98;1.23;;;27.40;42.30;;;;;;608257;234;26585;-67
2022/06/11 09:06:46;;;;;;;1.52;1.42;;;27.30;42.30;;;;;;601312;236;26877;-68
2022/06/11 09:09:30;;;;;;;1.10;0.98;;;27.30;42.30;;;;;;600706;238;26596;-65
2022/06/11 09:12:06;;;;;;;1.00;1.00;;;27.30;42.10;;;;;;601089;239;26599;-66
2022/06/11 09:14:49;;;;;;;1.48;1.00;;;27.30;42.30;;;;;;601140;239;26840;-65
2022/06/11 09:17:34;;;;;;;1.00;1.00;;;27.50;42.30;;;;;;600606;239;26886;-68
2022/06/11 09:20:12;;;;;;;1.00;0.90;;;27.60;41.80;;;;;;596416;236;26645;-67
2022/06/11 09:23:00;;;;;;;3.37;2.33;;;27.60;41.80;;;;;;610408;236;26925;-66
2022/06/11 09:25:34;;;;;;;3.10;2.30;;;27.40;41.90;;;;;;605507;236;26605;-68
2022/06/11 09:28:03;;;;;;;5.62;2.67;;;27.30;41.90;;;;;;603085;238;26600;-66
2022/06/11 09:30:34;;;;;;;2.80;1.20;;;27.20;41.70;;;;;;600880;239;26963;-67
2022/06/11 09:33:03;;;;;;;24.33;8.30;;;27.50;41.80;;;;;;607984;235;26614;-67
2022/06/11 09:35:55;;;;;;;30.12;10.13;;;27.40;41.70;;;;;;604321;235;27271;-67
2022/06/11 09:38:29;;;;;;;28.38;10.95;;;27.50;41.90;;;;;;602461;238;26985;-68
2022/06/11 09:41:01;;;;;;;26.08;9.68;;;27.70;41.90;;;;;;604336;236;26586;-68
2022/06/11 09:43:36;;;;;;;18.50;7.70;;;27.30;41.70;;;;;;610282;235;26859;-66
2022/06/11 09:46:05;;;;;;;9.63;4.05;;;27.10;42.10;;;;;;608228;234;26713;-66
2022/06/11 09:48:43;;;;;;;5.70;2.53;;;27.10;41.70;;;;;;602199;238;26864;-67
2022/06/11 09:51:12;;;;;;;11.90;6.05;;;27.40;41.80;;;;;;601476;238;26630;-65
2022/06/11 09:54:16;;;;;;;11.80;5.72;;;27.80;42.60;;;;;;606104;236;26551;-66
2022/06/11 09:56:49;;;;;;;7.87;4.68;;;27.70;42.60;;;;;;601674;234;26640;-66
2022/06/11 09:59:23;;;;;;;7.45;4.20;;;27.80;42.00;;;;;;602266;237;26621;-66
2022/06/11 10:01:50;;;;;;;6.22;2.95;;;28.00;42.20;;;;;;605403;235;26596;-67
2022/06/11 10:04:17;;;;;;;8.68;3.42;;;28.00;42.20;;;;;;607005;235;26623;-66
2022/06/11 10:06:58;;;;;;;7.05;3.65;;;27.90;41.60;;;;;;605250;237;26849;-66
2022/06/11 10:09:25;;;;;;;2.87;2.40;;;27.70;41.80;;;;;;612628;233;26583;-66
2022/06/11 10:12:01;;;;;;;4.30;2.62;;;27.60;41.70;;;;;;603691;238;26605;-66
2022/06/11 10:14:29;;;;;;;3.15;2.80;;;27.50;41.30;;;;;;603392;235;26863;-64
2022/06/11 10:17:21;;;;;;;5.60;2.70;;;27.60;41.30;;;;;;604574;238;26587;-65
2022/06/11 10:19:55;;;;;;;2.58;1.90;;;27.50;40.90;;;;;;602692;238;27268;-68
2022/06/11 10:22:31;;;;;;;8.00;3.37;;;27.50;41.30;;;;;;602876;237;26590;-70
2022/06/11 10:25:04;;;;;;;4.03;2.83;;;27.70;41.40;;;;;;601898;236;26634;-67
2022/06/11 10:27:32;;;;;;;2.83;2.17;;;27.60;40.70;;;;;;606018;236;26568;-65
2022/06/11 10:30:02;;;;;;;2.15;1.95;;;27.60;40.40;;;;;;609952;236;26627;-65
2022/06/11 10:32:29;;;;;;;9.18;2.60;;;27.60;40.10;;;;;;609988;236;26622;-64
2022/06/11 10:35:14;;;;;;;6.45;3.00;;;27.80;39.70;;;;;;604795;236;26619;-65
2022/06/11 10:37:48;;;;;;;6.45;2.45;;;27.80;39.00;;;;;;601336;239;26672;-66
2022/06/11 10:40:16;;;;;;;4.75;2.50;;;27.80;39.00;;;;;;606342;236;26631;-66
2022/06/11 10:43:02;;;;;;;4.40;2.40;;;27.40;39.20;;;;;;603556;236;26555;-66
2022/06/11 10:45:29;;;;;;;3.50;2.53;;;27.40;39.40;;;;;;612271;235;26664;-64
2022/06/11 10:47:56;;;;;;;3.85;2.80;;;27.70;39.60;;;;;;607394;235;26865;-65
2022/06/11 10:50:30;;;;;;;2.12;1.77;;;27.70;39.70;;;;;;601976;238;26659;-65
2022/06/11 10:53:12;;;;;;;1.85;1.60;;;28.20;39.20;;;;;;602468;236;27175;-65
2022/06/11 10:55:44;;;;;;;3.65;2.05;;;28.30;38.90;;;;;;605812;236;26634;-67
2022/06/11 10:58:12;;;;;;;4.45;2.30;;;28.60;39.40;;;;;;602570;237;26860;-66
2022/06/11 11:00:44;;;;;;;4.32;2.25;;;29.20;39.40;;;;;;603430;235;26784;-66
2022/06/11 11:03:12;;;;;;;1.98;1.55;;;29.10;38.30;;;;;;602930;235;26643;-65
2022/06/11 11:05:44;;;;;;;3.53;2.28;;;29.40;38.60;;;;;;604864;236;26611;-64
2022/06/11 11:08:11;;;;;;;3.47;2.22;;;29.30;38.50;;;;;;606866;235;26649;-65
2022/06/11 11:10:40;;;;;;;2.97;1.77;;;29.30;38.60;;;;;;611311;234;26959;-65
2022/06/11 11:13:08;;;;;;;2.83;1.60;;;29.00;38.30;;;;;;603305;234;26876;-65
2022/06/11 11:15:37;;;;;;;2.60;2.05;;;28.90;39.60;;;;;;606355;235;26585;-66
2022/06/11 11:18:09;;;;;;;1.80;1.67;;;29.10;39.00;;;;;;608160;235;26601;-65
2022/06/11 11:20:39;;;;;;;4.72;2.28;;;29.10;38.90;;;;;;603249;238;26797;-67
2022/06/11 11:23:05;;;;;;;2.75;2.42;;;29.50;38.60;;;;;;603075;236;26617;-66
2022/06/11 11:25:33;;;;;;;1.70;1.60;;;29.40;37.70;;;;;;609227;235;26834;-66
2022/06/11 11:28:01;;;;;;;1.45;1.30;;;29.00;38.40;;;;;;604288;238;26578;-66
2022/06/11 11:30:32;;;;;;;4.20;2.22;;;28.90;38.70;;;;;;604809;237;26574;-66
2022/06/11 11:32:59;;;;;;;3.37;1.87;;;28.90;38.70;;;;;;604540;238;26592;-66
2022/06/11 11:35:27;;;;;;;2.22;1.80;;;29.60;38.30;;;;;;601850;236;26607;-66
2022/06/11 11:38:01;;;;;;;2.58;2.03;;;29.60;38.50;;;;;;611060;235;26593;-67
2022/06/11 11:40:31;;;;;;;2.37;1.70;;;29.50;38.40;;;;;;610969;234;26602;-66
2022/06/11 11:42:58;;;;;;;3.45;1.92;;;30.00;38.80;;;;;;605267;235;26858;-65
2022/06/11 11:45:26;;;;;;;3.42;1.90;;;30.50;37.00;;;;;;601799;235;26598;-65
2022/06/11 11:47:55;;;;;;;4.70;2.10;;;30.50;37.10;;;;;;604832;238;26584;-65
2022/06/11 11:50:25;;;;;;;2.25;1.90;;;30.40;37.10;;;;;;604239;237;26817;-66
2022/06/11 11:52:52;;;;;;;3.53;2.30;;;30.20;36.90;;;;;;602298;235;26594;-66
2022/06/11 11:55:31;;;;;;;2.85;1.80;;;29.90;37.70;;;;;;610383;234;26656;-67
2022/06/11 11:58:01;;;;;;;2.10;1.62;;;29.50;38.00;;;;;;605953;236;26853;-66
2022/06/11 12:00:35;;;;;;;1.40;1.30;;;29.10;37.70;;;;;;603440;238;26582;-67
2022/06/11 12:03:03;;;;;;;1.92;1.50;;;28.20;38.80;;;;;;605066;234;26809;-67
2022/06/11 12:05:35;;;;;;;1.77;1.42;;;28.20;38.80;;;;;;601455;239;26853;-67
2022/06/11 12:08:02;;;;;;;1.27;1.27;;;28.00;39.00;;;;;;602877;235;26796;-69
2022/06/11 12:10:32;;;;;;;2.33;1.75;;;27.90;39.00;;;;;;604064;238;26597;-67
2022/06/11 12:13:00;;;;;;;3.87;1.95;;;28.00;38.80;;;;;;601908;238;26617;-66
2022/06/11 12:15:29;;;;;;;2.53;1.60;;;28.00;39.00;;;;;;606442;236;26701;-68
2022/06/11 12:17:58;;;;;;;3.00;1.87;;;28.00;39.00;;;;;;605228;236;26884;-66
2022/06/11 12:20:32;;;;;;;1.58;1.37;;;28.20;39.10;;;;;;606384;235;26858;-66
2022/06/11 12:23:21;;;;;;;2.47;1.50;;;28.20;39.30;;;;;;606248;235;26611;-67
2022/06/11 12:25:56;;;;;;;2.10;1.60;;;28.10;39.30;;;;;;610742;235;26685;-67
2022/06/11 12:28:23;;;;;;;3.35;1.65;;;27.80;39.60;;;;;;607209;235;26640;-67
2022/06/11 12:30:51;;;;;;;3.35;1.83;;;27.70;41.90;;;;;;607509;234;26663;-67
2022/06/11 12:33:19;;;;;;;4.87;1.70;;;27.40;42.60;;;;;;602611;237;26596;-65
2022/06/11 12:35:48;;;;;;;7.25;2.15;;;27.10;43.60;;;;;;607135;236;26635;-66
2022/06/11 12:38:23;;;;;;;81.25;17.80;;;26.80;44.60;;;;;;607247;236;26914;-66
2022/06/11 12:40:56;;;;;;;117.95;27.10;;;26.80;44.20;;;;;;604430;238;26591;-67
2022/06/11 12:43:26;;;;;;;167.55;32.88;;;26.70;44.90;;;;;;606045;236;26587;-66
2022/06/11 12:46:31;;;;;;;90.50;27.17;;;26.50;45.20;;;;;;605940;236;26851;-68
2022/06/11 12:49:10;;;;;;;86.93;23.25;;;26.40;45.20;;;;;;604102;238;26595;-68
2022/06/11 12:51:55;;;;;;;66.10;19.98;;;26.10;45.60;;;;;;606590;235;26670;-68
2022/06/11 12:54:26;;;;;;;62.20;18.08;;;26.20;45.70;;;;;;604461;235;26675;-68
2022/06/11 12:57:15;;;;;;;56.85;16.05;;;26.30;45.60;;;;;;600668;238;26587;-68
2022/06/11 12:59:51;;;;;;;56.85;14.90;;;26.30;45.60;;;;;;601535;238;26634;-68
2022/06/11 13:02:25;;;;;;;52.95;15.95;;;26.40;45.60;;;;;;602876;238;26581;-68